Time;durP1;ratioP1;P1;durP2;ratioP2;P2;SDS_P1;SDS_P2;PMS_P1;PMS_P2;Temp;Humidity;BMP_temperature;BMP_pressure;BME280_temperature;BME280_humidity;BME280_pressure;Samples;Min_cycle;Max_cycle;Signal;HPM_P1;HPM_P2
2023/09/25 00:01:04;;;;;;;2.40;1.40;;;;;;;16.38;58.44;102073.34;5059289;27;20096;-67
2023/09/25 00:03:32;;;;;;;2.42;1.33;;;;;;;16.37;58.55;102076.28;5060546;28;20132;-67
2023/09/25 00:06:00;;;;;;;2.90;1.55;;;;;;;16.36;58.51;102077.34;5059813;28;20045;-66
2023/09/25 00:08:28;;;;;;;3.60;1.63;;;;;;;16.34;58.59;102079.47;5059921;28;20049;-66
2023/09/25 00:10:55;;;;;;;2.13;1.30;;;;;;;16.34;58.55;102076.75;5061446;27;20053;-67
2023/09/25 00:13:23;;;;;;;3.33;1.42;;;;;;;16.33;58.52;102081.34;5063665;27;20044;-66
2023/09/25 00:15:51;;;;;;;2.85;1.45;;;;;;;16.31;58.48;102085.34;5062834;27;20056;-67
2023/09/25 00:18:20;;;;;;;3.08;1.90;;;;;;;16.30;58.50;102080.97;5062605;27;20115;-67
2023/09/25 00:20:48;;;;;;;2.17;1.33;;;;;;;16.28;58.37;102082.03;5059494;27;20052;-67
2023/09/25 00:23:16;;;;;;;2.38;1.60;;;;;;;16.28;58.51;102081.19;5061295;28;20041;-68
2023/09/25 00:25:44;;;;;;;2.53;1.60;;;;;;;16.28;58.50;102086.63;5061359;27;20045;-67
2023/09/25 00:28:11;;;;;;;3.38;2.05;;;;;;;16.26;58.52;102086.03;5062727;27;20102;-67
2023/09/25 00:30:40;;;;;;;3.75;1.58;;;;;;;16.26;58.45;102086.03;5060029;27;20049;-67
2023/09/25 00:33:08;;;;;;;2.22;1.50;;;;;;;16.24;58.36;102088.16;5059666;28;20041;-67
2023/09/25 00:35:37;;;;;;;4.13;1.85;;;;;;;16.23;58.40;102081.88;5060561;27;20442;-69
2023/09/25 00:38:05;;;;;;;1.75;1.20;;;;;;;16.22;58.24;102079.41;5060579;28;20049;-67
2023/09/25 00:40:33;;;;;;;2.58;1.42;;;;;;;16.18;58.43;102080.91;5069818;27;20104;-67
2023/09/25 00:43:01;;;;;;;3.97;1.50;;;;;;;16.20;58.36;102085.06;5068094;27;20045;-66
2023/09/25 00:45:29;;;;;;;2.08;1.45;;;;;;;16.18;58.31;102087.16;5060331;28;20361;-66
2023/09/25 00:47:57;;;;;;;3.00;1.52;;;;;;;16.18;58.32;102086.34;5060717;28;20097;-67
2023/09/25 00:50:29;;;;;;;2.33;1.48;;;;;;;16.17;58.15;102084.69;5060410;27;20053;-66
2023/09/25 00:53:03;;;;;;;2.78;1.58;;;;;;;16.16;58.22;102085.75;5062728;27;20063;-67
2023/09/25 00:55:31;;;;;;;3.03;1.52;;;;;;;16.14;58.28;102085.16;5059718;28;20558;-66
2023/09/25 00:58:01;;;;;;;3.00;1.60;;;;;;;16.02;58.23;102073.41;5063628;27;20045;-67
2023/09/25 01:00:29;;;;;;;2.72;1.40;;;;;;;16.11;58.14;102083.72;5058723;28;20117;-67
2023/09/25 01:02:56;;;;;;;2.83;1.30;;;;;;;16.11;58.11;102086.44;5056600;27;20045;-66
2023/09/25 01:05:24;;;;;;;2.63;1.50;;;;;;;16.09;58.17;102091.25;5058840;28;20136;-66
2023/09/25 01:07:52;;;;;;;2.85;1.40;;;;;;;16.08;58.09;102083.34;5060884;28;20060;-66
2023/09/25 01:10:22;;;;;;;2.42;1.38;;;;;;;16.08;58.15;102092.31;5059253;28;20084;-67
2023/09/25 01:12:52;;;;;;;6.13;1.73;;;;;;;16.02;58.08;102090.50;5059347;27;20111;-66
2023/09/25 01:15:20;;;;;;;3.45;1.77;;;;;;;16.05;58.11;102086.50;5061719;27;20112;-66
2023/09/25 01:17:48;;;;;;;2.75;1.35;;;;;;;16.05;58.11;102095.47;5060422;27;20041;-67
2023/09/25 01:20:17;;;;;;;2.40;1.40;;;;;;;16.03;58.10;102100.31;5056986;28;20052;-66
2023/09/25 01:22:48;;;;;;;2.60;1.70;;;;;;;16.01;58.15;102088.84;5059746;28;20121;-67
2023/09/25 01:25:17;;;;;;;3.75;1.70;;;;;;;16.00;58.12;102084.50;5058486;27;20496;-67
2023/09/25 01:27:47;;;;;;;3.38;1.92;;;;;;;15.97;58.21;102086.81;5059446;28;20067;-66
2023/09/25 01:30:16;;;;;;;2.95;1.48;;;;;;;15.98;58.14;102083.88;5059719;28;20070;-67
2023/09/25 01:32:46;;;;;;;3.35;1.40;;;;;;;15.97;58.14;102076.81;5056777;27;20052;-68
2023/09/25 01:35:17;;;;;;;3.05;1.92;;;;;;;15.95;58.21;102076.22;5072317;27;20045;-68
2023/09/25 01:37:48;;;;;;;3.17;1.48;;;;;;;15.95;58.25;102068.06;5058757;27;20063;-68
2023/09/25 01:40:17;;;;;;;2.60;1.55;;;;;;;15.93;58.11;102068.31;5059818;28;20053;-67
2023/09/25 01:42:46;;;;;;;3.63;1.70;;;;;;;15.93;58.05;102075.59;5061234;27;20478;-68
2023/09/25 01:45:16;;;;;;;4.18;1.63;;;;;;;15.93;58.03;102072.91;5058673;27;20049;-68
2023/09/25 01:47:49;;;;;;;3.28;1.50;;;;;;;15.91;57.98;102081.25;5060577;27;20410;-66
2023/09/25 01:50:18;;;;;;;4.00;1.98;;;;;;;15.85;58.05;102074.03;5059409;28;20055;-67
2023/09/25 01:52:49;;;;;;;3.80;1.77;;;;;;;15.90;58.07;102089.63;5060308;28;20049;-67
2023/09/25 01:55:17;;;;;;;6.13;1.40;;;;;;;15.90;58.18;102090.44;5064954;27;20060;-67
2023/09/25 01:57:44;;;;;;;4.43;1.67;;;;;;;15.89;58.14;102079.81;5056339;27;20124;-67
2023/09/25 02:00:13;;;;;;;1.83;1.48;;;;;;;15.88;58.26;102080.88;5057262;27;20045;-66
2023/09/25 02:02:41;;;;;;;2.63;1.48;;;;;;;15.84;58.11;102072.38;5058237;27;20049;-66
2023/09/25 02:05:10;;;;;;;4.53;1.70;;;;;;;15.86;58.02;102075.69;5057616;28;20045;-66
2023/09/25 02:07:38;;;;;;;3.03;1.65;;;;;;;15.82;58.08;102073.66;5058442;27;20053;-66
2023/09/25 02:10:08;;;;;;;2.80;1.67;;;;;;;15.85;58.13;102074.03;5059436;28;20063;-66
2023/09/25 02:12:36;;;;;;;5.53;1.80;;;;;;;15.84;58.11;102074.25;5062147;27;20049;-67
2023/09/25 02:15:06;;;;;;;2.53;1.60;;;;;;;15.81;58.01;102070.13;5062543;27;20464;-67
2023/09/25 02:17:35;;;;;;;3.42;1.92;;;;;;;15.83;58.37;102072.59;5058385;27;20127;-67
2023/09/25 02:20:16;;;;;;;2.15;1.33;;;;;;;15.82;58.06;102073.66;5057107;28;20129;-66
2023/09/25 02:22:44;;;;;;;2.72;1.67;;;;;;;15.80;58.08;102070.34;5056998;27;20056;-66
2023/09/25 02:25:13;;;;;;;3.22;1.60;;;;;;;15.79;57.96;102068.69;5059462;28;20086;-66
2023/09/25 02:27:41;;;;;;;4.68;1.60;;;;;;;15.77;57.89;102076.22;5059357;27;20534;-66
2023/09/25 02:30:10;;;;;;;3.13;1.83;;;;;;;15.77;57.90;102078.94;5058648;28;20059;-67
2023/09/25 02:32:41;;;;;;;2.63;1.50;;;;;;;15.76;58.22;102072.69;5057933;28;20083;-67
2023/09/25 02:35:10;;;;;;;3.88;1.80;;;;;;;15.76;58.00;102077.28;5059941;27;20069;-67
2023/09/25 02:37:40;;;;;;;4.78;2.28;;;;;;;15.75;57.73;102075.63;5061555;27;20049;-68
2023/09/25 02:40:10;;;;;;;3.42;2.08;;;;;;;15.73;57.93;102069.59;5058355;27;20400;-67
2023/09/25 02:42:39;;;;;;;3.20;1.88;;;;;;;15.72;57.87;102066.06;5062665;27;20172;-67
2023/09/25 02:45:08;;;;;;;5.18;1.88;;;;;;;15.70;58.07;102070.03;5058428;28;20310;-67
2023/09/25 02:47:36;;;;;;;2.83;1.52;;;;;;;15.67;58.01;102067.78;5062916;27;20117;-67
2023/09/25 02:50:05;;;;;;;4.32;1.73;;;;;;;15.63;57.92;102068.22;5057419;27;20064;-67
2023/09/25 02:52:33;;;;;;;2.72;1.83;;;;;;;15.66;57.86;102074.25;5058929;27;20071;-67
2023/09/25 02:55:01;;;;;;;5.72;1.73;;;;;;;15.65;57.98;102072.59;5058805;28;20056;-67
2023/09/25 02:57:28;;;;;;;2.80;1.70;;;;;;;15.64;57.83;102071.78;5063515;28;20503;-67
2023/09/25 02:59:58;;;;;;;2.78;1.40;;;;;;;15.63;57.95;102064.69;5059143;27;20056;-68
2023/09/25 03:02:26;;;;;;;3.50;1.52;;;;;;;15.60;57.95;102073.31;5059839;28;20041;-67
2023/09/25 03:04:54;;;;;;;3.20;1.80;;;;;;;15.61;57.84;102075.75;5059737;28;20064;-67
2023/09/25 03:07:22;;;;;;;3.60;1.83;;;;;;;15.60;57.78;102068.69;5061704;28;20060;-67
2023/09/25 03:09:50;;;;;;;4.13;1.77;;;;;;;15.57;57.85;102079.19;5066556;27;20053;-67
2023/09/25 03:12:18;;;;;;;3.40;1.75;;;;;;;15.56;57.79;102069.38;5062808;27;20055;-67
2023/09/25 03:14:46;;;;;;;3.10;1.50;;;;;;;15.54;57.93;102079.59;5061182;28;20060;-67
2023/09/25 03:17:15;;;;;;;4.97;1.65;;;;;;;15.52;57.90;102077.09;5079291;27;20053;-67
2023/09/25 03:19:43;;;;;;;5.32;1.88;;;;;;;15.53;57.71;102076.06;5063029;27;20100;-67
2023/09/25 03:22:11;;;;;;;3.22;1.73;;;;;;;15.51;57.67;102072.75;5062163;28;20045;-67
2023/09/25 03:24:38;;;;;;;3.15;1.70;;;;;;;15.50;57.80;102076.50;5062668;28;20060;-67
2023/09/25 03:27:07;;;;;;;4.13;1.70;;;;;;;15.45;57.82;102064.69;5061963;27;20056;-67
2023/09/25 03:29:34;;;;;;;4.85;1.75;;;;;;;15.48;57.74;102075.06;5058990;27;20052;-67
2023/09/25 03:32:03;;;;;;;2.75;1.60;;;;;;;15.48;57.86;102061.53;5060043;28;20121;-66
2023/09/25 03:34:32;;;;;;;4.55;1.80;;;;;;;15.46;57.71;102058.22;5061461;28;20049;-66
2023/09/25 03:37:00;;;;;;;3.75;1.40;;;;;;;15.44;57.66;102065.75;5060722;27;20541;-67
2023/09/25 03:39:27;;;;;;;2.75;1.73;;;;;;;15.44;57.83;102071.16;5062240;28;20048;-66
2023/09/25 03:41:55;;;;;;;2.70;1.67;;;;;;;15.42;57.76;102070.56;5061170;27;20089;-67
2023/09/25 03:44:23;;;;;;;2.13;1.52;;;;;;;15.41;57.80;102068.91;5061320;28;20055;-67
2023/09/25 03:46:51;;;;;;;3.65;1.80;;;;;;;15.41;57.81;102071.59;5059437;27;20466;-66
2023/09/25 03:49:18;;;;;;;3.20;1.60;;;;;;;15.40;57.75;102061.81;5059600;28;20045;-66
2023/09/25 03:51:48;;;;;;;5.25;2.10;;;;;;;15.39;57.84;102069.13;5059401;27;20125;-67
2023/09/25 03:54:16;;;;;;;4.05;2.13;;;;;;;15.37;57.74;102065.81;5062960;27;20098;-67
2023/09/25 03:56:43;;;;;;;5.90;2.22;;;;;;;15.38;57.75;102069.34;5045385;28;20057;-66
2023/09/25 03:59:12;;;;;;;7.30;2.25;;;;;;;15.38;57.68;102075.59;5054912;28;20053;-67
2023/09/25 04:01:39;;;;;;;5.10;1.92;;;;;;;15.37;57.73;102073.94;5060238;27;20056;-66
2023/09/25 04:04:07;;;;;;;3.25;1.45;;;;;;;15.37;57.68;102071.22;5046692;28;20072;-67
2023/09/25 04:06:35;;;;;;;2.58;1.60;;;;;;;15.37;57.55;102073.94;5050574;28;20045;-67
2023/09/25 04:09:06;;;;;;;4.28;1.90;;;;;;;15.37;57.64;102078.53;5061742;28;20392;-67
2023/09/25 04:11:35;;;;;;;3.17;1.85;;;;;;;15.32;57.60;102070.25;5057778;27;20049;-67
2023/09/25 04:14:03;;;;;;;4.20;1.70;;;;;;;15.36;57.63;102083.09;5061374;28;20053;-67
2023/09/25 04:16:33;;;;;;;5.65;2.10;;;;;;;15.36;57.45;102088.53;5059695;27;20041;-66
2023/09/25 04:19:04;;;;;;;2.72;1.50;;;;;;;15.34;57.57;102087.91;5066622;27;20483;-67
2023/09/25 04:21:32;;;;;;;4.07;1.80;;;;;;;15.34;57.66;102097.94;5053771;28;20053;-67
2023/09/25 04:24:01;;;;;;;2.95;1.67;;;;;;;15.34;57.72;102089.81;5059738;27;20044;-66
2023/09/25 04:26:30;;;;;;;4.18;1.67;;;;;;;15.35;57.45;102095.00;5060992;28;20066;-67
2023/09/25 04:28:58;;;;;;;2.78;1.67;;;;;;;15.33;57.67;102080.84;5060163;27;20074;-68
2023/09/25 04:31:28;;;;;;;4.70;2.25;;;;;;;15.32;57.61;102073.78;5053217;27;20790;-66
2023/09/25 04:33:59;;;;;;;4.63;1.52;;;;;;;15.32;57.60;102086.50;5041253;28;20056;-67
2023/09/25 04:36:29;;;;;;;5.18;1.98;;;;;;;15.32;57.66;102083.78;5045597;27;20048;-67
2023/09/25 04:38:57;;;;;;;4.60;2.03;;;;;;;15.22;57.50;102070.75;5056478;28;20049;-67
2023/09/25 04:41:26;;;;;;;5.65;2.40;;;;;;;15.30;57.59;102095.66;5060991;27;20121;-67
2023/09/25 04:43:55;;;;;;;3.67;1.90;;;;;;;15.30;57.54;102094.84;5061342;27;20102;-67
2023/09/25 04:46:23;;;;;;;3.05;1.73;;;;;;;15.28;57.61;102096.94;5069524;27;20150;-67
2023/09/25 04:48:51;;;;;;;4.32;2.05;;;;;;;15.27;57.35;102092.56;5061030;27;20056;-67
2023/09/25 04:51:20;;;;;;;4.45;1.90;;;;;;;15.24;57.67;102093.03;5053505;27;20049;-67
2023/09/25 04:53:48;;;;;;;3.63;2.08;;;;;;;15.25;57.56;102092.78;5059451;27;20063;-66
2023/09/25 04:56:20;;;;;;;2.78;1.80;;;;;;;15.20;57.48;102091.81;5059505;27;20067;-67
2023/09/25 04:58:49;;;;;;;2.75;1.60;;;;;;;15.22;57.46;102087.81;5069914;27;20041;-66
2023/09/25 05:01:18;;;;;;;4.53;2.15;;;;;;;15.20;57.59;102089.94;5058775;27;20105;-67
2023/09/25 05:03:46;;;;;;;4.13;2.13;;;;;;;15.20;57.51;102094.50;5060387;27;20057;-68
2023/09/25 05:06:15;;;;;;;5.40;1.92;;;;;;;15.19;57.47;102096.38;5064821;27;20049;-66
2023/09/25 05:08:43;;;;;;;5.20;1.67;;;;;;;15.19;57.51;102087.44;5059789;27;20057;-67
2023/09/25 05:11:11;;;;;;;3.42;2.00;;;;;;;15.17;57.59;102086.84;5072699;27;20063;-67
2023/09/25 05:13:39;;;;;;;3.80;2.20;;;;;;;15.17;57.39;102095.78;5072263;27;21596;-67
2023/09/25 05:16:07;;;;;;;2.65;1.75;;;;;;;15.16;57.45;102091.41;5070792;27;20049;-67
2023/09/25 05:18:36;;;;;;;3.53;1.83;;;;;;;15.15;57.48;102097.06;5069047;27;20067;-67
2023/09/25 05:21:04;;;;;;;3.85;2.03;;;;;;;15.14;57.64;102095.41;5059111;28;20044;-67
2023/09/25 05:23:32;;;;;;;5.88;1.98;;;;;;;15.04;57.81;102081.53;5083014;27;20116;-67
2023/09/25 05:26:00;;;;;;;2.38;1.50;;;;;;;15.12;57.55;102109.16;5072047;27;20607;-65
2023/09/25 05:28:28;;;;;;;2.58;1.52;;;;;;;15.11;57.54;102096.66;5057145;28;21544;-67
2023/09/25 05:30:56;;;;;;;3.50;1.60;;;;;;;15.11;57.47;102093.97;5060900;27;20113;-67
2023/09/25 05:33:24;;;;;;;4.22;1.70;;;;;;;15.10;57.44;102107.72;5059017;27;20140;-68
2023/09/25 05:35:54;;;;;;;4.22;1.73;;;;;;;15.10;57.80;102110.44;5061227;27;20104;-68
2023/09/25 05:38:21;;;;;;;2.75;1.80;;;;;;;15.06;57.69;102107.34;5062206;27;20240;-68
2023/09/25 05:40:49;;;;;;;3.58;1.77;;;;;;;15.07;57.52;102103.56;5059061;28;20045;-68
2023/09/25 05:43:17;;;;;;;3.72;1.90;;;;;;;15.02;57.43;102095.28;5088579;27;20534;-67
2023/09/25 05:45:45;;;;;;;2.88;1.75;;;;;;;15.07;57.56;102113.56;5059755;28;20263;-67
2023/09/25 05:48:13;;;;;;;3.72;1.92;;;;;;;15.05;57.39;102110.25;5065485;27;20052;-68
2023/09/25 05:50:41;;;;;;;4.22;2.08;;;;;;;15.06;57.59;102114.63;5057358;28;20057;-68
2023/09/25 05:53:10;;;;;;;3.42;1.73;;;;;;;15.05;57.55;102111.09;5059523;28;20085;-67
2023/09/25 05:55:38;;;;;;;4.35;1.75;;;;;;;15.05;57.28;102104.84;5058837;28;20110;-69
2023/09/25 05:58:07;;;;;;;3.50;1.85;;;;;;;15.04;57.48;102109.44;5057694;27;20041;-68
2023/09/25 06:00:35;;;;;;;3.40;1.85;;;;;;;15.03;57.37;102106.94;5056873;28;20055;-68
2023/09/25 06:03:04;;;;;;;4.00;1.83;;;;;;;15.02;57.60;102108.81;5056274;27;20075;-68
2023/09/25 06:05:32;;;;;;;2.83;1.65;;;;;;;15.03;57.44;102117.78;5058232;28;20087;-68
2023/09/25 06:08:00;;;;;;;4.10;1.80;;;;;;;15.03;57.37;102112.38;5059542;27;20093;-70
2023/09/25 06:10:29;;;;;;;4.68;2.00;;;;;;;15.03;57.56;102115.91;5059468;28;20578;-68
2023/09/25 06:12:57;;;;;;;4.88;1.90;;;;;;;15.03;57.58;102118.59;5059125;28;20390;-70
2023/09/25 06:15:25;;;;;;;6.40;1.90;;;;;;;15.05;57.38;102112.97;5058499;28;20061;-69
2023/09/25 06:17:56;;;;;;;3.33;1.80;;;;;;;15.04;57.46;102108.59;5055354;27;20454;-68
2023/09/25 06:20:26;;;;;;;3.42;1.70;;;;;;;15.04;57.42;102116.72;5057431;28;20056;-70
2023/09/25 06:22:54;;;;;;;4.88;2.10;;;;;;;15.04;57.53;102112.13;5054702;27;20053;-68
2023/09/25 06:25:22;;;;;;;6.20;2.22;;;;;;;15.04;57.47;102114.03;5059855;28;20074;-67
2023/09/25 06:27:51;;;;;;;4.80;1.90;;;;;;;14.98;57.53;102108.44;5054037;27;20053;-67
2023/09/25 06:30:19;;;;;;;3.70;2.00;;;;;;;15.04;57.46;102130.25;5061917;27;20052;-68
2023/09/25 06:32:48;;;;;;;4.60;1.88;;;;;;;15.02;57.61;102125.06;5057648;28;20059;-67
2023/09/25 06:35:16;;;;;;;4.40;1.98;;;;;;;15.02;57.60;102114.25;5061891;27;20045;-67
2023/09/25 06:37:44;;;;;;;3.55;1.85;;;;;;;15.04;57.81;102119.44;5059034;28;20443;-63
2023/09/25 06:40:15;;;;;;;4.40;2.28;;;;;;;14.93;57.41;102100.16;5069211;27;20056;-66
2023/09/25 06:42:44;;;;;;;4.95;2.00;;;;;;;15.04;57.64;102117.56;5055061;27;20053;-65
2023/09/25 06:45:13;;;;;;;3.75;2.13;;;;;;;15.04;57.39;102125.69;5061433;27;20346;-67
2023/09/25 06:47:41;;;;;;;5.05;2.10;;;;;;;15.07;57.60;102129.81;5089767;27;20113;-67
2023/09/25 06:50:10;;;;;;;5.20;2.40;;;;;;;14.98;57.45;102110.31;5083736;27;20209;-67
2023/09/25 06:52:40;;;;;;;3.22;1.38;;;;;;;15.09;57.56;102116.91;5064971;27;20080;-67
2023/09/25 06:55:09;;;;;;;4.97;2.15;;;;;;;15.08;57.37;102123.34;5060906;27;20082;-67
2023/09/25 06:57:36;;;;;;;3.65;2.10;;;;;;;15.10;57.44;102122.09;5085261;27;20049;-67
2023/09/25 07:00:06;;;;;;;3.30;1.92;;;;;;;15.08;57.36;102113.34;5107915;27;20096;-66
2023/09/25 07:02:36;;;;;;;5.70;2.15;;;;;;;15.03;57.80;102106.94;5074236;27;20057;-67
2023/09/25 07:05:04;;;;;;;5.97;2.30;;;;;;;15.07;57.25;102119.81;5072986;27;20144;-66
2023/09/25 07:07:32;;;;;;;4.10;1.92;;;;;;;15.09;57.61;102125.00;5116797;27;20039;-67
2023/09/25 07:10:00;;;;;;;5.05;1.83;;;;;;;15.09;57.33;102127.72;5060151;27;20044;-66
2023/09/25 07:12:28;;;;;;;3.80;1.80;;;;;;;15.09;57.48;102128.56;5119318;27;20056;-66
2023/09/25 07:14:56;;;;;;;5.40;3.00;;;;;;;15.06;57.48;102120.88;5062768;27;20049;-67
2023/09/25 07:17:24;;;;;;;3.95;1.88;;;;;;;15.07;57.38;102121.69;5103640;27;20055;-66
2023/09/25 07:19:55;;;;;;;3.50;1.67;;;;;;;15.07;57.78;102125.25;5097293;27;20099;-66
2023/09/25 07:22:25;;;;;;;2.85;1.52;;;;;;;15.08;57.64;102123.34;5087872;27;20038;-65
2023/09/25 07:24:53;;;;;;;3.95;1.95;;;;;;;15.04;57.84;102116.72;5080497;27;20049;-67
2023/09/25 07:27:21;;;;;;;4.15;1.63;;;;;;;15.05;57.92;102111.09;5066618;27;20049;-65
2023/09/25 07:29:49;;;;;;;3.88;2.03;;;;;;;15.04;57.65;102120.25;5082790;27;20152;-66
2023/09/25 07:32:17;;;;;;;3.72;1.58;;;;;;;15.04;57.90;102112.13;5101048;27;20109;-67
2023/09/25 07:34:46;;;;;;;4.97;2.03;;;;;;;15.03;57.87;102117.78;5123241;27;20058;-67
2023/09/25 07:37:17;;;;;;;4.88;2.00;;;;;;;15.05;57.93;102119.22;5091556;27;20045;-67
2023/09/25 07:39:45;;;;;;;3.55;2.13;;;;;;;15.05;58.02;102121.91;5086703;27;20159;-66
2023/09/25 07:42:13;;;;;;;3.85;1.50;;;;;;;15.06;57.98;102120.03;5102567;27;20046;-67
2023/09/25 07:44:42;;;;;;;5.78;2.10;;;;;;;15.05;57.99;102124.63;5089856;27;20046;-66
2023/09/25 07:47:12;;;;;;;2.70;1.63;;;;;;;15.07;57.84;102119.00;5081514;27;20049;-67
2023/09/25 07:49:44;;;;;;;3.53;1.80;;;;;;;15.08;58.01;102118.78;5110561;27;20060;-67
2023/09/25 07:52:16;;;;;;;3.38;1.75;;;;;;;15.10;57.98;102113.13;5087657;27;20114;-67
2023/09/25 07:54:45;;;;;;;2.22;1.48;;;;;;;15.12;58.07;102116.44;5080902;27;20094;-67
2023/09/25 07:57:14;;;;;;;3.40;1.90;;;;;;;15.12;57.96;102125.41;5065550;27;20053;-69
2023/09/25 07:59:42;;;;;;;3.28;1.42;;;;;;;15.12;58.07;102125.41;5070309;27;20039;-68
2023/09/25 08:02:11;;;;;;;3.28;2.13;;;;;;;15.19;58.82;102128.88;5104085;27;20052;-67
2023/09/25 08:04:39;;;;;;;3.42;1.58;;;;;;;15.21;58.06;102124.09;5103957;27;20078;-66
2023/09/25 08:07:07;;;;;;;3.95;1.77;;;;;;;15.22;58.25;102122.19;5090898;27;20049;-67
2023/09/25 08:09:36;;;;;;;3.72;1.70;;;;;;;15.24;58.09;102136.34;5068374;27;20045;-67
2023/09/25 08:12:05;;;;;;;3.25;1.83;;;;;;;15.23;58.15;102129.28;5064368;27;20067;-66
2023/09/25 08:14:33;;;;;;;6.10;1.98;;;;;;;15.22;58.30;102128.44;5086445;27;20085;-67
2023/09/25 08:17:00;;;;;;;6.97;2.22;;;;;;;15.23;58.35;102126.56;5086805;27;20053;-66
2023/09/25 08:19:28;;;;;;;3.42;1.67;;;;;;;15.22;58.52;102127.63;5090392;27;20053;-67
2023/09/25 08:21:56;;;;;;;4.15;1.83;;;;;;;15.22;58.50;102124.91;5126301;27;20117;-67
2023/09/25 08:24:24;;;;;;;3.25;1.65;;;;;;;15.22;58.49;102131.16;5080122;27;20045;-67
2023/09/25 08:26:57;;;;;;;3.03;2.03;;;;;;;15.06;58.61;102093.78;5066196;27;20109;-67
2023/09/25 08:29:25;;;;;;;3.35;1.58;;;;;;;15.25;58.79;102121.75;5069325;27;20557;-67
2023/09/25 08:31:53;;;;;;;2.78;1.50;;;;;;;15.25;58.94;102129.88;5093181;27;20053;-67
2023/09/25 08:34:22;;;;;;;3.63;1.60;;;;;;;15.31;58.96;102118.16;5089375;27;20066;-67
2023/09/25 08:36:49;;;;;;;3.70;1.90;;;;;;;15.33;59.23;102112.53;5066745;27;20041;-67
2023/09/25 08:39:17;;;;;;;2.92;1.58;;;;;;;15.32;59.04;102117.13;5098319;27;20052;-68
2023/09/25 08:41:46;;;;;;;5.70;1.98;;;;;;;15.29;59.10;102106.72;5076019;27;20052;-67
2023/09/25 08:44:16;;;;;;;5.57;1.75;;;;;;;15.36;59.14;102117.50;5087369;27;20475;-68
2023/09/25 08:46:44;;;;;;;2.60;1.63;;;;;;;15.38;59.22;102113.50;5066276;27;20045;-68
2023/09/25 08:49:13;;;;;;;3.13;1.77;;;;;;;15.39;59.15;102112.47;5099025;27;20045;-68
2023/09/25 08:51:40;;;;;;;4.47;1.63;;;;;;;15.41;59.20;102114.94;5076806;27;20081;-68
2023/09/25 08:54:09;;;;;;;3.47;1.70;;;;;;;15.40;59.33;102108.69;5059335;28;20092;-68
2023/09/25 08:56:38;;;;;;;3.05;1.75;;;;;;;15.40;59.33;102102.47;5055806;27;20079;-67
2023/09/25 08:59:06;;;;;;;4.03;2.00;;;;;;;15.43;59.54;102099.31;5081153;27;20049;-68
2023/09/25 09:01:37;;;;;;;2.70;1.60;;;;;;;15.49;59.51;102106.53;5060927;28;20045;-68
2023/09/25 09:04:06;;;;;;;3.97;1.58;;;;;;;15.54;60.07;102104.81;5064102;27;20072;-68
2023/09/25 09:06:34;;;;;;;3.95;1.48;;;;;;;15.56;59.38;102101.88;5064011;27;20053;-68
2023/09/25 09:09:02;;;;;;;5.70;2.00;;;;;;;15.55;59.41;102103.75;5102099;27;20074;-67
2023/09/25 09:11:30;;;;;;;2.67;1.75;;;;;;;15.58;59.79;102107.94;5109420;27;20049;-68
2023/09/25 09:14:02;;;;;;;2.60;1.33;;;;;;;15.55;59.71;102101.06;5063390;27;20439;-68
2023/09/25 09:16:30;;;;;;;4.03;1.77;;;;;;;15.58;59.96;102107.94;5093027;27;20293;-68
2023/09/25 09:19:07;;;;;;;3.00;1.42;;;;;;;15.60;59.84;102105.81;5125049;27;20053;-68
2023/09/25 09:21:36;;;;;;;3.17;1.98;;;;;;;15.61;59.88;102100.16;5094383;27;20043;-67
2023/09/25 09:24:08;;;;;;;2.80;1.65;;;;;;;15.65;60.05;102103.25;5103440;27;20053;-68
2023/09/25 09:26:37;;;;;;;2.63;1.65;;;;;;;15.68;60.69;102096.53;5093238;27;20569;-68
2023/09/25 09:29:05;;;;;;;2.85;1.83;;;;;;;15.70;60.23;102099.84;5097566;27;20049;-67
2023/09/25 09:31:33;;;;;;;5.93;1.58;;;;;;;15.71;60.21;102098.81;5062834;27;20049;-68
2023/09/25 09:34:01;;;;;;;2.90;1.60;;;;;;;15.69;60.17;102096.31;5067299;27;20109;-67
2023/09/25 09:36:30;;;;;;;3.28;1.50;;;;;;;15.91;60.48;102096.69;5092565;27;20039;-68
2023/09/25 09:39:01;;;;;;;2.75;1.40;;;;;;;15.82;60.55;102098.06;5073219;27;20124;-67
2023/09/25 09:41:30;;;;;;;2.88;1.55;;;;;;;16.09;60.33;102096.69;5105000;27;20045;-67
2023/09/25 09:43:57;;;;;;;4.13;1.40;;;;;;;16.01;60.66;102086.16;5073599;27;20053;-67
2023/09/25 09:46:27;;;;;;;2.42;1.50;;;;;;;15.91;60.78;102097.53;5083179;27;20074;-67
2023/09/25 09:48:57;;;;;;;3.95;2.00;;;;;;;15.93;61.49;102086.44;5084629;27;20106;-68
2023/09/25 09:51:28;;;;;;;3.22;1.50;;;;;;;15.97;61.00;102097.66;5080308;27;21073;-68
2023/09/25 09:54:02;;;;;;;3.08;1.60;;;;;;;16.15;61.27;102095.78;5075990;27;20113;-67
2023/09/25 09:56:32;;;;;;;3.40;1.50;;;;;;;16.12;61.66;102079.94;5069054;27;20063;-67
2023/09/25 09:59:01;;;;;;;3.53;1.58;;;;;;;16.15;61.12;102108.50;5073958;27;20041;-67
2023/09/25 10:01:30;;;;;;;4.38;1.88;;;;;;;16.10;61.43;102105.66;5076488;27;20150;-67
2023/09/25 10:03:59;;;;;;;2.50;1.65;;;;;;;16.09;61.60;102112.13;5078073;27;20054;-67
2023/09/25 10:06:29;;;;;;;4.53;1.50;;;;;;;16.01;61.31;102105.13;5078586;27;20049;-67
2023/09/25 10:09:08;;;;;;;4.75;1.58;;;;;;;16.03;61.67;102107.59;5111353;27;20100;-67
2023/09/25 10:11:36;;;;;;;5.10;1.60;;;;;;;16.07;61.61;102122.38;5092252;27;20059;-67
2023/09/25 10:14:04;;;;;;;2.10;1.50;;;;;;;16.07;61.70;102101.50;5058602;27;20070;-67
2023/09/25 10:17:00;;;;;;;2.97;1.20;;;;;;;16.09;61.59;102102.09;5053617;27;20056;-67
2023/09/25 10:19:54;;;;;;;3.22;1.60;;;;;;;16.11;61.67;102102.72;5056998;27;20069;-67
2023/09/25 10:22:24;;;;;;;8.20;1.77;;;;;;;16.33;61.61;102105.75;5059889;28;20117;-67
2023/09/25 10:25:05;;;;;;;5.45;1.63;;;;;;;16.31;61.84;102101.63;5055904;28;20053;-67
2023/09/25 10:27:34;;;;;;;2.92;1.50;;;;;;;16.41;62.25;102104.63;5064054;27;20053;-67
2023/09/25 10:30:06;;;;;;;2.72;1.33;;;;;;;16.31;61.76;102102.44;5064635;27;20049;-67
2023/09/25 10:32:38;;;;;;;4.82;1.50;;;;;;;16.37;61.89;102109.66;5145000;27;20099;-67
2023/09/25 10:35:40;;;;;;;2.63;1.48;;;;;;;16.37;61.73;102108.84;5127271;27;20065;-67
2023/09/25 10:38:17;;;;;;;4.05;1.73;;;;;;;16.39;62.10;102109.44;5088629;27;20048;-67
2023/09/25 10:41:05;;;;;;;2.58;1.40;;;;;;;16.34;61.87;102115.56;5057407;27;20080;-67
2023/09/25 10:43:34;;;;;;;3.38;1.55;;;;;;;16.42;62.26;102114.41;5076629;27;20038;-67
2023/09/25 10:46:03;;;;;;;3.95;1.88;;;;;;;16.41;61.84;102107.31;5102212;27;20056;-67
2023/09/25 10:48:33;;;;;;;2.83;1.40;;;;;;;16.48;62.02;102103.47;5086869;27;20054;-68
2023/09/25 10:51:01;;;;;;;2.95;1.75;;;;;;;16.44;61.92;102104.16;5081123;27;20041;-67
2023/09/25 10:53:29;;;;;;;2.70;1.38;;;;;;;16.42;61.90;102107.09;5086185;27;20041;-68
2023/09/25 10:55:57;;;;;;;2.20;1.35;;;;;;;16.44;61.96;102102.28;5088275;27;20057;-67
2023/09/25 10:58:26;;;;;;;2.83;1.52;;;;;;;16.47;61.90;102095.56;5078176;27;20050;-66
2023/09/25 11:00:55;;;;;;;3.65;1.52;;;;;;;16.47;62.10;102087.41;5066030;27;20125;-66
2023/09/25 11:03:25;;;;;;;2.72;1.50;;;;;;;16.46;61.90;102081.16;5066802;27;20045;-65
2023/09/25 11:05:54;;;;;;;6.25;1.88;;;;;;;16.51;61.88;102092.16;5075073;27;20045;-65
2023/09/25 11:08:21;;;;;;;6.32;2.08;;;;;;;16.56;62.13;102094.16;5055773;27;20118;-65
2023/09/25 11:10:49;;;;;;;2.08;1.42;;;;;;;16.63;61.94;102099.50;5061744;27;20135;-64
2023/09/25 11:13:18;;;;;;;2.78;1.75;;;;;;;16.66;62.25;102090.94;5060365;27;20549;-64
2023/09/25 11:15:48;;;;;;;4.97;1.55;;;;;;;16.65;62.23;102095.53;5059410;27;20057;-65
2023/09/25 11:18:20;;;;;;;2.60;1.42;;;;;;;16.69;62.31;102099.44;5104158;27;20053;-64
2023/09/25 11:20:51;;;;;;;3.35;1.33;;;;;;;16.69;62.07;102102.16;5153255;27;20070;-66
2023/09/25 11:23:19;;;;;;;2.55;1.40;;;;;;;16.69;62.03;102096.72;5073212;27;20041;-64
2023/09/25 11:25:51;;;;;;;2.50;1.40;;;;;;;16.76;62.23;102097.44;5064787;27;20454;-64
2023/09/25 11:28:21;;;;;;;2.22;1.33;;;;;;;16.80;62.27;102098.63;5085555;27;20044;-64
2023/09/25 11:30:51;;;;;;;6.80;2.03;;;;;;;16.82;62.20;102095.69;5109334;27;20410;-65
2023/09/25 11:33:21;;;;;;;3.25;1.50;;;;;;;16.85;62.41;102101.47;5121229;27;20509;-64